createdAt,value
2019-04-11T00:03:25.013Z,99298.69
2019-04-11T00:08:28.329Z,99300.00
2019-04-11T00:13:33.377Z,99294.86
2019-04-11T00:18:36.701Z,99301.02
2019-04-11T00:23:40.571Z,99293.80
2019-04-11T00:28:43.850Z,99296.33
2019-04-11T00:33:46.992Z,99285.88
2019-04-11T00:38:50.585Z,99284.77
2019-04-11T00:43:54.653Z,99294.66
2019-04-11T00:48:57.982Z,99301.33
2019-04-11T00:54:01.127Z,99315.20
2019-04-11T00:59:04.198Z,99314.19
2019-04-11T01:04:07.655Z,99320.72
2019-04-11T01:09:12.430Z,99325.98
2019-04-11T01:14:15.677Z,99337.97
2019-04-11T01:19:18.811Z,99336.27
2019-04-11T01:24:22.204Z,99333.91
2019-04-11T01:29:25.424Z,99335.28
2019-04-11T01:34:28.869Z,99325.97
2019-04-11T01:40:03.653Z,99338.63
2019-04-11T01:45:09.415Z,99344.48
2019-04-11T01:50:16.828Z,99346.30
2019-04-11T01:55:20.662Z,99342.80
2019-04-11T02:00:42.517Z,99352.75
2019-04-11T02:05:45.708Z,99355.40
2019-04-11T02:10:48.874Z,99359.27
2019-04-11T02:15:54.214Z,99358.98
2019-04-11T02:20:57.637Z,99368.28
2019-04-11T02:26:07.157Z,99376.05
2019-04-11T02:31:12.261Z,99377.67
2019-04-11T02:36:16.697Z,99386.88
2019-04-11T02:41:21.091Z,99385.20
2019-04-11T02:46:36.957Z,99382.03
2019-04-11T02:51:31.016Z,99380.73
2019-04-11T02:56:35.690Z,99386.55
2019-04-11T03:01:39.874Z,99387.52
2019-04-11T03:06:43.867Z,99386.67
2019-04-11T03:11:49.290Z,99393.25
2019-04-11T03:17:03.893Z,99388.71
2019-04-11T03:21:59.354Z,99395.44
2019-04-11T03:27:05.709Z,99398.98
2019-04-11T03:32:48.902Z,99403.57
2019-04-11T03:37:38.044Z,99409.13
2019-04-11T03:42:38.194Z,99409.45
2019-04-11T03:47:37.341Z,99419.06
2019-04-11T03:52:30.604Z,99414.53
2019-04-11T03:57:34.429Z,99428.75
2019-04-11T04:02:38.975Z,99429.50
2019-04-11T04:07:44.138Z,99439.21
2019-04-11T04:12:48.123Z,99442.39
2019-04-11T04:18:01.303Z,99435.33
2019-04-11T04:23:23.042Z,99454.38
2019-04-11T04:28:27.239Z,99447.16
2019-04-11T04:33:30.784Z,99457.07
2019-04-11T04:38:37.719Z,99454.44
2019-04-11T04:43:43.587Z,99467.78
2019-04-11T04:48:47.866Z,99470.07
2019-04-11T04:53:52.139Z,99478.94
2019-04-11T04:58:55.992Z,99488.42
2019-04-11T05:03:59.226Z,99486.08
2019-04-11T05:09:02.537Z,99493.75
2019-04-11T05:14:07.066Z,99487.73
2019-04-11T05:19:10.429Z,99493.88
2019-04-11T05:24:14.500Z,99490.33
2019-04-11T05:29:17.725Z,99491.03
2019-04-11T05:34:20.684Z,99498.50
2019-04-11T05:39:23.731Z,99503.16
2019-04-11T05:44:26.714Z,99501.20
2019-04-11T05:49:42.032Z,99504.20
2019-04-11T05:54:49.801Z,99505.36
2019-04-11T05:59:55.123Z,99506.14
2019-04-11T06:05:05.391Z,99519.19
2019-04-11T06:10:14.668Z,99514.34
2019-04-11T06:15:29.263Z,99519.52
2019-04-11T06:20:47.554Z,99518.02
2019-04-11T06:25:57.593Z,99526.19
2019-04-11T06:31:24.836Z,99521.58
2019-04-11T06:36:48.249Z,99526.51
2019-04-11T06:41:59.077Z,99530.39
2019-04-11T06:47:30.657Z,99529.70
2019-04-11T06:52:34.958Z,99529.50
2019-04-11T06:57:38.322Z,99534.41
2019-04-11T07:02:44.537Z,99534.77
2019-04-11T07:07:49.978Z,99535.75
2019-04-11T07:13:00.833Z,99534.59
2019-04-11T07:18:31.109Z,99540.39
2019-04-11T07:23:53.414Z,99551.40
2019-04-11T07:29:17.276Z,99549.02
2019-04-11T07:34:43.633Z,99556.37
2019-04-11T07:40:26.640Z,99558.45
2019-04-11T07:45:49.056Z,99565.13
2019-04-11T07:50:54.989Z,99565.13
2019-04-11T07:55:57.542Z,99569.45
2019-04-11T08:01:29.427Z,99572.98
2019-04-11T08:06:52.155Z,99574.37
2019-04-11T08:12:04.541Z,99569.63
2019-04-11T08:17:25.872Z,99574.59
2019-04-11T08:22:50.075Z,99582.03
2019-04-11T08:28:13.980Z,99586.11
2019-04-11T08:33:18.311Z,99585.09
2019-04-11T08:38:29.420Z,99588.61
2019-04-11T08:43:33.053Z,99583.61
2019-04-11T08:48:41.179Z,99590.94
2019-04-11T08:54:19.536Z,99587.22
2019-04-11T08:59:45.998Z,99598.07
2019-04-11T09:05:14.683Z,99606.19
2019-04-11T09:10:15.712Z,99609.83
2019-04-11T09:15:37.511Z,99617.73
2019-04-11T09:21:12.453Z,99613.88
2019-04-11T09:26:42.466Z,99621.98
2019-04-11T09:32:18.154Z,99616.45
2019-04-11T09:37:46.630Z,99618.13
2019-04-11T09:43:22.199Z,99624.17
2019-04-11T09:48:44.403Z,99622.05
2019-04-11T09:53:52.919Z,99625.31
2019-04-11T09:58:58.262Z,99622.34
2019-04-11T10:04:01.580Z,99626.45
2019-04-11T10:09:08.091Z,99625.58
2019-04-11T10:14:13.674Z,99627.23
2019-04-11T10:19:38.115Z,99625.11
2019-04-11T10:25:19.364Z,99626.89
2019-04-11T10:30:48.260Z,99622.55
2019-04-11T10:36:10.433Z,99619.97
2019-04-11T10:41:32.657Z,99626.38
2019-04-11T10:46:49.549Z,99620.19
2019-04-11T10:51:58.747Z,99630.50
2019-04-11T10:57:24.339Z,99630.41
2019-04-11T11:02:53.638Z,99635.87
2019-04-11T11:08:02.332Z,99633.61
2019-04-11T11:13:25.676Z,99628.83
2019-04-11T11:19:24.599Z,99631.96
2019-04-11T11:24:33.838Z,99634.39
2019-04-11T11:29:56.504Z,99639.20
2019-04-11T11:35:25.265Z,99638.39
2019-04-11T11:40:50.059Z,99648.02
2019-04-11T11:46:25.712Z,99650.39
2019-04-11T11:51:45.741Z,99645.29
2019-04-11T11:56:49.078Z,99643.59
2019-04-11T12:02:04.445Z,99654.04
2019-04-11T12:07:09.406Z,99646.00
2019-04-11T12:12:17.682Z,99644.80
2019-04-11T12:17:47.039Z,99652.79
2019-04-11T12:22:52.071Z,99648.41
2019-04-11T12:28:14.701Z,99647.32
2019-04-11T12:33:35.398Z,99644.51
2019-04-11T12:38:56.062Z,99644.60
2019-04-11T12:44:26.705Z,99642.19
2019-04-11T12:49:52.989Z,99644.31
2019-04-11T12:54:54.523Z,99636.28
2019-04-11T13:00:05.996Z,99637.30
2019-04-11T13:05:10.747Z,99641.53
2019-04-11T13:10:32.125Z,99642.00
2019-04-11T13:15:40.732Z,99641.03
2019-04-11T13:21:03.694Z,99640.91
2019-04-11T13:26:41.231Z,99638.11
2019-04-11T13:32:02.547Z,99640.22
2019-04-11T13:37:23.878Z,99644.53
2019-04-11T13:42:44.982Z,99646.16
2019-04-11T13:48:16.811Z,99645.54
2019-04-11T13:53:37.849Z,99664.03
2019-04-11T13:59:12.454Z,99656.80
2019-04-11T14:04:21.318Z,99656.23
2019-04-11T14:09:31.410Z,99658.67
2019-04-11T14:14:36.552Z,99664.41
2019-04-11T14:19:53.873Z,99667.69
2019-04-11T14:25:15.072Z,99658.48
2019-04-11T14:30:43.921Z,99660.50
2019-04-11T14:36:32.615Z,99654.60
2019-04-11T14:41:46.222Z,99661.20
2019-04-11T14:47:11.927Z,99661.70
2019-04-11T14:52:36.605Z,99658.92
2019-04-11T14:58:02.161Z,99658.05
2019-04-11T15:03:14.687Z,99656.06
2019-04-11T15:08:30.806Z,99650.22
2019-04-11T15:13:33.956Z,99661.22
2019-04-11T15:18:42.072Z,99659.84
2019-04-11T15:23:47.717Z,99660.71
2019-04-11T15:29:22.110Z,99660.14
2019-04-11T15:34:34.763Z,99655.77
2019-04-11T15:39:56.170Z,99654.09
2019-04-11T15:45:14.770Z,99660.00
2019-04-11T15:50:35.993Z,99661.80
2019-04-11T15:55:47.439Z,99662.80
2019-04-11T16:00:58.397Z,99657.07
2019-04-11T16:06:19.647Z,99660.70
2019-04-11T16:11:42.188Z,99665.86
2019-04-11T16:17:13.948Z,99657.22
2019-04-11T16:22:34.868Z,99658.83
2019-04-11T16:28:07.148Z,99669.28
2019-04-11T16:33:23.419Z,99670.09
2019-04-11T16:38:27.358Z,99671.67
2019-04-11T16:43:32.086Z,99677.40
2019-04-11T16:48:35.292Z,99676.61
2019-04-11T16:53:38.318Z,99681.78
2019-04-11T16:58:43.024Z,99680.61
2019-04-11T17:03:45.998Z,99684.86
2019-04-11T17:08:56.395Z,99679.48
2019-04-11T17:13:58.998Z,99677.58
2019-04-11T17:19:04.957Z,99683.65
2019-04-11T17:24:06.919Z,99694.41
2019-04-11T17:29:09.891Z,99687.42
2019-04-11T17:34:12.902Z,99694.65
2019-04-11T17:39:15.918Z,99698.91
2019-04-11T17:44:18.904Z,99703.27
2019-04-11T17:49:22.005Z,99711.80
2019-04-11T17:54:25.587Z,99715.14
2019-04-11T17:59:29.139Z,99729.53
2019-04-11T18:04:32.273Z,99735.45
2019-04-11T18:09:35.349Z,99747.67
2019-04-11T18:14:38.344Z,99756.50
2019-04-11T18:19:41.475Z,99757.98
2019-04-11T18:24:44.623Z,99768.62
2019-04-11T18:29:47.783Z,99771.75
2019-04-11T18:34:50.738Z,99778.95
2019-04-11T18:39:53.754Z,99778.63
2019-04-11T18:44:56.725Z,99791.61
2019-04-11T18:49:59.826Z,99790.94
2019-04-11T18:55:04.460Z,99791.26
2019-04-11T19:00:12.979Z,99791.58
2019-04-11T19:05:27.873Z,99799.25
2019-04-11T19:10:22.035Z,99792.69
2019-04-11T19:15:25.062Z,99792.61
2019-04-11T19:20:28.155Z,99787.67
2019-04-11T19:25:31.697Z,99789.30
2019-04-11T19:30:34.912Z,99782.70
2019-04-11T19:35:41.345Z,99781.58
2019-04-11T19:40:44.175Z,99781.58
2019-04-11T19:45:50.070Z,99778.45
2019-04-11T19:50:53.203Z,99781.79
2019-04-11T19:56:22.081Z,99781.48
2019-04-11T20:01:25.131Z,99781.14
2019-04-11T20:06:28.171Z,99788.52
2019-04-11T20:11:31.157Z,99794.78
2019-04-11T20:16:41.837Z,99790.28
2019-04-11T20:21:39.093Z,99789.47
2019-04-11T20:26:42.158Z,99784.05
2019-04-11T20:31:45.553Z,99783.48
2019-04-11T20:36:48.751Z,99786.24
2019-04-11T20:41:53.615Z,99790.42
2019-04-11T20:47:00.131Z,99784.83
2019-04-11T20:52:01.910Z,99797.94
2019-04-11T20:57:05.009Z,99788.00
2019-04-11T21:02:08.216Z,99793.33
2019-04-11T21:07:12.040Z,99793.09
2019-04-11T21:12:17.084Z,99786.94
2019-04-11T21:17:21.218Z,99785.08
2019-04-11T21:22:24.871Z,99782.95
2019-04-11T21:27:29.020Z,99781.00
2019-04-11T21:32:32.996Z,99792.80
2019-04-11T21:37:36.771Z,99792.16
2019-04-11T21:42:40.465Z,99785.22
2019-04-11T21:47:43.573Z,99779.53
2019-04-11T21:52:46.749Z,99780.84
2019-04-11T21:57:49.965Z,99783.42
2019-04-11T22:02:54.346Z,99785.95
2019-04-11T22:07:58.100Z,99786.48
2019-04-11T22:13:01.480Z,99788.16
2019-04-11T22:18:04.877Z,99779.89
2019-04-11T22:23:08.007Z,99779.84
2019-04-11T22:28:11.122Z,99788.18
2019-04-11T22:33:32.946Z,99786.87
2019-04-11T22:38:36.204Z,99794.24
2019-04-11T22:43:39.443Z,99794.82
2019-04-11T22:48:42.620Z,99792.69
2019-04-11T22:53:45.803Z,99796.34
2019-04-11T22:58:49.028Z,99800.99
2019-04-11T23:04:01.539Z,99801.34
2019-04-11T23:09:06.759Z,99803.61
2019-04-11T23:14:09.887Z,99803.79
2019-04-11T23:19:14.362Z,99798.05
2019-04-11T23:24:17.727Z,99800.17
2019-04-11T23:29:21.147Z,99794.29
2019-04-11T23:34:24.263Z,99791.17
2019-04-11T23:39:27.447Z,99800.12
2019-04-11T23:44:30.592Z,99795.20
2019-04-11T23:49:33.790Z,99794.87
2019-04-11T23:54:36.841Z,99790.13
2019-04-11T23:59:39.988Z,99787.33
